sensor_id;sensor_type;location;lat;lon;timestamp;temperature;humidity
24664;DHT22;12791;50.992;13.788;2023-02-18T00:00:14;9.80;99.90
24664;DHT22;12791;50.992;13.788;2023-02-18T00:02:42;9.80;99.90
24664;DHT22;12791;50.992;13.788;2023-02-18T00:05:09;9.80;99.90
24664;DHT22;12791;50.992;13.788;2023-02-18T00:07:36;9.80;99.90
24664;DHT22;12791;50.992;13.788;2023-02-18T00:10:05;9.80;99.90
24664;DHT22;12791;50.992;13.788;2023-02-18T00:12:32;9.80;99.90
24664;DHT22;12791;50.992;13.788;2023-02-18T00:15:00;9.80;99.90
24664;DHT22;12791;50.992;13.788;2023-02-18T00:17:28;9.90;99.90
24664;DHT22;12791;50.992;13.788;2023-02-18T00:19:54;10.00;99.90
24664;DHT22;12791;50.992;13.788;2023-02-18T00:22:21;9.90;99.90
24664;DHT22;12791;50.992;13.788;2023-02-18T00:24:48;10.10;99.90
24664;DHT22;12791;50.992;13.788;2023-02-18T00:27:15;10.00;99.90
24664;DHT22;12791;50.992;13.788;2023-02-18T00:29:41;9.90;99.90
24664;DHT22;12791;50.992;13.788;2023-02-18T00:32:09;9.90;99.90
24664;DHT22;12791;50.992;13.788;2023-02-18T00:34:36;10.00;99.90
24664;DHT22;12791;50.992;13.788;2023-02-18T00:37:03;10.00;99.90
24664;DHT22;12791;50.992;13.788;2023-02-18T00:39:29;10.10;99.90
24664;DHT22;12791;50.992;13.788;2023-02-18T00:41:56;10.00;99.90
24664;DHT22;12791;50.992;13.788;2023-02-18T00:44:22;10.00;99.90
24664;DHT22;12791;50.992;13.788;2023-02-18T00:46:49;10.00;99.90
24664;DHT22;12791;50.992;13.788;2023-02-18T00:49:17;10.00;99.90
24664;DHT22;12791;50.992;13.788;2023-02-18T00:51:43;10.10;99.90
24664;DHT22;12791;50.992;13.788;2023-02-18T00:54:10;10.10;99.90
24664;DHT22;12791;50.992;13.788;2023-02-18T00:56:36;10.10;99.90
24664;DHT22;12791;50.992;13.788;2023-02-18T00:59:03;10.10;99.90
24664;DHT22;12791;50.992;13.788;2023-02-18T01:01:30;10.20;99.90
24664;DHT22;12791;50.992;13.788;2023-02-18T01:03:56;10.10;99.90
24664;DHT22;12791;50.992;13.788;2023-02-18T01:06:24;10.20;99.90
24664;DHT22;12791;50.992;13.788;2023-02-18T01:08:51;10.10;99.90
24664;DHT22;12791;50.992;13.788;2023-02-18T01:11:18;10.10;99.90
24664;DHT22;12791;50.992;13.788;2023-02-18T01:13:44;10.10;99.90
24664;DHT22;12791;50.992;13.788;2023-02-18T01:16:11;10.00;99.90
24664;DHT22;12791;50.992;13.788;2023-02-18T01:18:38;10.10;99.90
24664;DHT22;12791;50.992;13.788;2023-02-18T01:21:06;10.10;99.90
24664;DHT22;12791;50.992;13.788;2023-02-18T01:23:34;10.10;99.90
24664;DHT22;12791;50.992;13.788;2023-02-18T01:26:01;10.00;99.90
24664;DHT22;12791;50.992;13.788;2023-02-18T01:28:28;10.00;99.90
24664;DHT22;12791;50.992;13.788;2023-02-18T01:30:54;10.20;99.90
24664;DHT22;12791;50.992;13.788;2023-02-18T01:33:21;10.00;99.90
24664;DHT22;12791;50.992;13.788;2023-02-18T01:35:48;10.00;99.90
24664;DHT22;12791;50.992;13.788;2023-02-18T01:38:15;10.00;99.90
24664;DHT22;12791;50.992;13.788;2023-02-18T01:40:49;9.80;99.90
24664;DHT22;12791;50.992;13.788;2023-02-18T01:43:17;10.00;99.90
24664;DHT22;12791;50.992;13.788;2023-02-18T01:45:50;10.00;99.90
24664;DHT22;12791;50.992;13.788;2023-02-18T01:48:20;9.90;99.90
24664;DHT22;12791;50.992;13.788;2023-02-18T01:50:50;10.00;99.90
24664;DHT22;12791;50.992;13.788;2023-02-18T01:53:23;9.90;99.90
24664;DHT22;12791;50.992;13.788;2023-02-18T01:55:52;9.90;99.90
24664;DHT22;12791;50.992;13.788;2023-02-18T01:58:19;9.90;99.90
24664;DHT22;12791;50.992;13.788;2023-02-18T02:00:46;9.90;99.90
24664;DHT22;12791;50.992;13.788;2023-02-18T02:03:13;9.90;99.90
24664;DHT22;12791;50.992;13.788;2023-02-18T02:05:39;9.70;99.90
24664;DHT22;12791;50.992;13.788;2023-02-18T02:08:06;9.80;99.90
24664;DHT22;12791;50.992;13.788;2023-02-18T02:10:43;9.80;99.90
24664;DHT22;12791;50.992;13.788;2023-02-18T02:13:21;9.80;99.90
24664;DHT22;12791;50.992;13.788;2023-02-18T02:15:54;9.80;99.90
24664;DHT22;12791;50.992;13.788;2023-02-18T02:18:47;9.80;99.90
24664;DHT22;12791;50.992;13.788;2023-02-18T02:21:44;9.70;99.90
24664;DHT22;12791;50.992;13.788;2023-02-18T02:24:42;9.80;99.90
24664;DHT22;12791;50.992;13.788;2023-02-18T02:27:14;9.70;99.90
24664;DHT22;12791;50.992;13.788;2023-02-18T02:30:19;9.70;99.90
24664;DHT22;12791;50.992;13.788;2023-02-18T02:33:10;9.80;99.90
24664;DHT22;12791;50.992;13.788;2023-02-18T02:35:47;9.70;99.90
24664;DHT22;12791;50.992;13.788;2023-02-18T02:38:22;9.70;99.90
24664;DHT22;12791;50.992;13.788;2023-02-18T02:40:54;9.70;99.90
24664;DHT22;12791;50.992;13.788;2023-02-18T02:43:30;9.70;99.90
24664;DHT22;12791;50.992;13.788;2023-02-18T02:46:02;9.60;99.90
24664;DHT22;12791;50.992;13.788;2023-02-18T02:48:36;9.60;99.90
24664;DHT22;12791;50.992;13.788;2023-02-18T02:51:11;9.60;99.90
24664;DHT22;12791;50.992;13.788;2023-02-18T02:53:40;9.60;99.90
24664;DHT22;12791;50.992;13.788;2023-02-18T02:56:12;9.70;99.90
24664;DHT22;12791;50.992;13.788;2023-02-18T02:58:39;9.60;99.90
24664;DHT22;12791;50.992;13.788;2023-02-18T03:01:23;9.60;99.90
24664;DHT22;12791;50.992;13.788;2023-02-18T03:04:08;9.60;99.90
24664;DHT22;12791;50.992;13.788;2023-02-18T03:06:59;9.60;99.90
24664;DHT22;12791;50.992;13.788;2023-02-18T03:09:36;9.60;99.90
24664;DHT22;12791;50.992;13.788;2023-02-18T03:12:13;9.60;99.90
24664;DHT22;12791;50.992;13.788;2023-02-18T03:14:45;9.60;99.90
24664;DHT22;12791;50.992;13.788;2023-02-18T03:17:22;9.50;99.90
24664;DHT22;12791;50.992;13.788;2023-02-18T03:19:54;9.60;99.90
24664;DHT22;12791;50.992;13.788;2023-02-18T03:22:26;9.50;99.90
24664;DHT22;12791;50.992;13.788;2023-02-18T03:24:55;9.70;99.90
24664;DHT22;12791;50.992;13.788;2023-02-18T03:27:24;9.40;99.90
24664;DHT22;12791;50.992;13.788;2023-02-18T03:29:55;9.50;99.90
24664;DHT22;12791;50.992;13.788;2023-02-18T03:32:23;9.50;99.90
24664;DHT22;12791;50.992;13.788;2023-02-18T03:34:53;9.50;99.90
24664;DHT22;12791;50.992;13.788;2023-02-18T03:37:21;9.50;99.90
24664;DHT22;12791;50.992;13.788;2023-02-18T03:39:53;9.60;99.90
24664;DHT22;12791;50.992;13.788;2023-02-18T03:42:24;9.70;99.90
24664;DHT22;12791;50.992;13.788;2023-02-18T03:44:51;9.30;99.90
24664;DHT22;12791;50.992;13.788;2023-02-18T03:47:18;9.50;99.90
24664;DHT22;12791;50.992;13.788;2023-02-18T03:49:45;9.60;99.90
24664;DHT22;12791;50.992;13.788;2023-02-18T03:52:11;9.40;99.90
24664;DHT22;12791;50.992;13.788;2023-02-18T03:54:38;9.60;99.90
24664;DHT22;12791;50.992;13.788;2023-02-18T03:57:06;9.40;99.90
24664;DHT22;12791;50.992;13.788;2023-02-18T03:59:33;9.40;99.90
24664;DHT22;12791;50.992;13.788;2023-02-18T04:02:00;9.40;99.90
24664;DHT22;12791;50.992;13.788;2023-02-18T04:04:27;9.50;99.90
24664;DHT22;12791;50.992;13.788;2023-02-18T04:06:53;9.40;99.90
24664;DHT22;12791;50.992;13.788;2023-02-18T04:09:20;9.60;99.90
24664;DHT22;12791;50.992;13.788;2023-02-18T04:11:47;9.30;99.90
24664;DHT22;12791;50.992;13.788;2023-02-18T04:14:15;9.40;99.90
24664;DHT22;12791;50.992;13.788;2023-02-18T04:16:41;9.40;99.90
24664;DHT22;12791;50.992;13.788;2023-02-18T04:19:08;9.40;99.90
24664;DHT22;12791;50.992;13.788;2023-02-18T04:21:35;9.30;99.90
24664;DHT22;12791;50.992;13.788;2023-02-18T04:24:01;9.40;99.90
24664;DHT22;12791;50.992;13.788;2023-02-18T04:26:28;9.40;99.90
24664;DHT22;12791;50.992;13.788;2023-02-18T04:28:55;9.40;99.90
24664;DHT22;12791;50.992;13.788;2023-02-18T04:31:23;9.40;99.90
24664;DHT22;12791;50.992;13.788;2023-02-18T04:33:49;9.40;99.90
24664;DHT22;12791;50.992;13.788;2023-02-18T04:36:16;9.40;99.90
24664;DHT22;12791;50.992;13.788;2023-02-18T04:38:42;9.30;99.90
24664;DHT22;12791;50.992;13.788;2023-02-18T04:41:09;9.50;99.90
24664;DHT22;12791;50.992;13.788;2023-02-18T04:43:37;9.50;99.90
24664;DHT22;12791;50.992;13.788;2023-02-18T04:46:04;9.30;99.90
24664;DHT22;12791;50.992;13.788;2023-02-18T04:48:31;9.40;99.90
24664;DHT22;12791;50.992;13.788;2023-02-18T04:50:59;9.40;99.90
24664;DHT22;12791;50.992;13.788;2023-02-18T04:53:26;9.40;99.90
24664;DHT22;12791;50.992;13.788;2023-02-18T04:55:53;9.40;99.90
24664;DHT22;12791;50.992;13.788;2023-02-18T04:58:20;9.50;99.90
24664;DHT22;12791;50.992;13.788;2023-02-18T05:00:47;9.40;99.90
24664;DHT22;12791;50.992;13.788;2023-02-18T05:03:13;9.40;99.90
24664;DHT22;12791;50.992;13.788;2023-02-18T05:05:41;9.40;99.90
24664;DHT22;12791;50.992;13.788;2023-02-18T05:08:08;9.50;99.90
24664;DHT22;12791;50.992;13.788;2023-02-18T05:10:36;9.40;99.90
24664;DHT22;12791;50.992;13.788;2023-02-18T05:13:03;9.40;99.90
24664;DHT22;12791;50.992;13.788;2023-02-18T05:15:30;9.50;99.90
24664;DHT22;12791;50.992;13.788;2023-02-18T05:17:57;9.40;99.90
24664;DHT22;12791;50.992;13.788;2023-02-18T05:20:23;9.30;99.90
24664;DHT22;12791;50.992;13.788;2023-02-18T05:22:51;9.40;99.90
24664;DHT22;12791;50.992;13.788;2023-02-18T05:25:18;9.40;99.90
24664;DHT22;12791;50.992;13.788;2023-02-18T05:27:44;9.40;99.90
24664;DHT22;12791;50.992;13.788;2023-02-18T05:30:11;9.40;99.90
24664;DHT22;12791;50.992;13.788;2023-02-18T05:32:38;9.40;99.90
24664;DHT22;12791;50.992;13.788;2023-02-18T05:35:06;9.40;99.90
24664;DHT22;12791;50.992;13.788;2023-02-18T05:37:32;9.40;99.90
24664;DHT22;12791;50.992;13.788;2023-02-18T05:40:00;9.40;99.90
24664;DHT22;12791;50.992;13.788;2023-02-18T05:42:27;9.30;99.90
24664;DHT22;12791;50.992;13.788;2023-02-18T05:44:54;9.60;99.90
24664;DHT22;12791;50.992;13.788;2023-02-18T05:47:20;9.60;99.90
24664;DHT22;12791;50.992;13.788;2023-02-18T05:49:47;9.50;99.90
24664;DHT22;12791;50.992;13.788;2023-02-18T05:52:15;9.50;99.90
24664;DHT22;12791;50.992;13.788;2023-02-18T05:54:42;9.50;99.90
24664;DHT22;12791;50.992;13.788;2023-02-18T05:57:12;9.40;99.90
24664;DHT22;12791;50.992;13.788;2023-02-18T05:59:39;9.40;99.90
24664;DHT22;12791;50.992;13.788;2023-02-18T06:02:06;9.40;99.90
24664;DHT22;12791;50.992;13.788;2023-02-18T06:04:32;9.40;99.90
24664;DHT22;12791;50.992;13.788;2023-02-18T06:06:59;9.40;99.90
24664;DHT22;12791;50.992;13.788;2023-02-18T06:09:25;9.40;99.90
24664;DHT22;12791;50.992;13.788;2023-02-18T06:11:52;9.40;99.90
24664;DHT22;12791;50.992;13.788;2023-02-18T06:14:20;9.40;99.90
24664;DHT22;12791;50.992;13.788;2023-02-18T06:16:47;9.40;99.90
24664;DHT22;12791;50.992;13.788;2023-02-18T06:19:13;9.30;99.90
24664;DHT22;12791;50.992;13.788;2023-02-18T06:21:40;9.70;99.90
24664;DHT22;12791;50.992;13.788;2023-02-18T06:24:07;9.30;99.90
24664;DHT22;12791;50.992;13.788;2023-02-18T06:26:33;9.50;99.90
24664;DHT22;12791;50.992;13.788;2023-02-18T06:29:00;9.50;99.90
24664;DHT22;12791;50.992;13.788;2023-02-18T06:31:28;9.60;99.90
24664;DHT22;12791;50.992;13.788;2023-02-18T06:33:55;9.40;99.90
24664;DHT22;12791;50.992;13.788;2023-02-18T06:36:21;9.40;99.90
24664;DHT22;12791;50.992;13.788;2023-02-18T06:38:48;9.40;99.90
24664;DHT22;12791;50.992;13.788;2023-02-18T06:41:14;9.30;99.90
24664;DHT22;12791;50.992;13.788;2023-02-18T06:43:41;9.30;99.90
24664;DHT22;12791;50.992;13.788;2023-02-18T06:46:08;9.30;99.90
24664;DHT22;12791;50.992;13.788;2023-02-18T06:48:36;9.30;99.90
24664;DHT22;12791;50.992;13.788;2023-02-18T06:51:03;9.30;99.90
24664;DHT22;12791;50.992;13.788;2023-02-18T06:53:30;9.20;99.90
24664;DHT22;12791;50.992;13.788;2023-02-18T06:55:57;9.10;99.90
24664;DHT22;12791;50.992;13.788;2023-02-18T06:58:23;9.20;99.90
24664;DHT22;12791;50.992;13.788;2023-02-18T07:00:50;9.20;99.90
24664;DHT22;12791;50.992;13.788;2023-02-18T07:03:16;9.20;99.90
24664;DHT22;12791;50.992;13.788;2023-02-18T07:05:44;9.10;99.90
24664;DHT22;12791;50.992;13.788;2023-02-18T07:08:11;9.20;99.90
24664;DHT22;12791;50.992;13.788;2023-02-18T07:10:38;9.20;99.90
24664;DHT22;12791;50.992;13.788;2023-02-18T07:13:05;9.20;99.90
24664;DHT22;12791;50.992;13.788;2023-02-18T07:15:31;9.20;99.90
24664;DHT22;12791;50.992;13.788;2023-02-18T07:17:58;9.20;99.90
24664;DHT22;12791;50.992;13.788;2023-02-18T07:20:25;9.20;99.90
24664;DHT22;12791;50.992;13.788;2023-02-18T07:22:54;9.20;99.90
24664;DHT22;12791;50.992;13.788;2023-02-18T07:25:21;9.30;99.90
24664;DHT22;12791;50.992;13.788;2023-02-18T07:27:48;9.00;99.90
24664;DHT22;12791;50.992;13.788;2023-02-18T07:30:15;9.20;99.90
24664;DHT22;12791;50.992;13.788;2023-02-18T07:32:42;9.20;99.90
24664;DHT22;12791;50.992;13.788;2023-02-18T07:35:10;9.20;99.90
24664;DHT22;12791;50.992;13.788;2023-02-18T07:37:38;9.20;99.90
24664;DHT22;12791;50.992;13.788;2023-02-18T07:40:08;9.20;99.90
24664;DHT22;12791;50.992;13.788;2023-02-18T07:42:35;9.20;99.90
24664;DHT22;12791;50.992;13.788;2023-02-18T07:45:02;9.10;99.90
24664;DHT22;12791;50.992;13.788;2023-02-18T07:47:29;9.20;99.90
24664;DHT22;12791;50.992;13.788;2023-02-18T07:49:56;9.20;99.90
24664;DHT22;12791;50.992;13.788;2023-02-18T07:52:23;9.20;99.90
24664;DHT22;12791;50.992;13.788;2023-02-18T07:54:49;9.20;99.90
24664;DHT22;12791;50.992;13.788;2023-02-18T07:57:17;9.20;99.90
24664;DHT22;12791;50.992;13.788;2023-02-18T07:59:44;9.20;99.90
24664;DHT22;12791;50.992;13.788;2023-02-18T08:02:14;9.30;99.90
24664;DHT22;12791;50.992;13.788;2023-02-18T08:04:43;9.20;99.90
24664;DHT22;12791;50.992;13.788;2023-02-18T08:07:12;9.20;99.90
24664;DHT22;12791;50.992;13.788;2023-02-18T08:09:39;9.10;99.90
24664;DHT22;12791;50.992;13.788;2023-02-18T08:12:06;9.20;99.90
24664;DHT22;12791;50.992;13.788;2023-02-18T08:14:34;9.20;99.90
24664;DHT22;12791;50.992;13.788;2023-02-18T08:17:00;9.20;99.90
24664;DHT22;12791;50.992;13.788;2023-02-18T08:19:27;9.20;99.90
24664;DHT22;12791;50.992;13.788;2023-02-18T08:21:53;9.10;99.90
24664;DHT22;12791;50.992;13.788;2023-02-18T08:24:20;9.30;99.90
24664;DHT22;12791;50.992;13.788;2023-02-18T08:26:47;9.20;99.90
24664;DHT22;12791;50.992;13.788;2023-02-18T08:29:13;9.20;99.90
24664;DHT22;12791;50.992;13.788;2023-02-18T08:31:41;9.30;99.90
24664;DHT22;12791;50.992;13.788;2023-02-18T08:34:07;9.10;99.90
24664;DHT22;12791;50.992;13.788;2023-02-18T08:36:35;9.20;99.90
24664;DHT22;12791;50.992;13.788;2023-02-18T08:39:02;9.30;99.90
24664;DHT22;12791;50.992;13.788;2023-02-18T08:41:28;9.50;99.90
24664;DHT22;12791;50.992;13.788;2023-02-18T08:43:55;9.20;99.90
24664;DHT22;12791;50.992;13.788;2023-02-18T08:46:21;9.20;99.90
24664;DHT22;12791;50.992;13.788;2023-02-18T08:48:49;9.20;99.90
24664;DHT22;12791;50.992;13.788;2023-02-18T08:51:18;9.30;99.90
24664;DHT22;12791;50.992;13.788;2023-02-18T08:53:45;9.20;99.90
24664;DHT22;12791;50.992;13.788;2023-02-18T08:56:13;9.10;99.90
24664;DHT22;12791;50.992;13.788;2023-02-18T08:58:40;9.30;99.90
24664;DHT22;12791;50.992;13.788;2023-02-18T09:01:09;9.30;99.90
24664;DHT22;12791;50.992;13.788;2023-02-18T09:03:36;9.30;99.90
24664;DHT22;12791;50.992;13.788;2023-02-18T09:06:04;9.40;99.90
24664;DHT22;12791;50.992;13.788;2023-02-18T09:08:31;9.30;99.90
24664;DHT22;12791;50.992;13.788;2023-02-18T09:11:00;9.30;99.90
24664;DHT22;12791;50.992;13.788;2023-02-18T09:13:26;9.00;99.90
24664;DHT22;12791;50.992;13.788;2023-02-18T09:15:58;9.30;99.90
24664;DHT22;12791;50.992;13.788;2023-02-18T09:18:25;9.30;99.90
24664;DHT22;12791;50.992;13.788;2023-02-18T09:20:55;9.30;99.90
24664;DHT22;12791;50.992;13.788;2023-02-18T09:23:24;9.30;99.90
24664;DHT22;12791;50.992;13.788;2023-02-18T09:25:50;9.10;99.90
24664;DHT22;12791;50.992;13.788;2023-02-18T09:28:17;9.30;99.90
24664;DHT22;12791;50.992;13.788;2023-02-18T09:30:43;9.30;99.90
24664;DHT22;12791;50.992;13.788;2023-02-18T09:33:10;9.30;99.90
24664;DHT22;12791;50.992;13.788;2023-02-18T09:35:38;9.30;99.90
24664;DHT22;12791;50.992;13.788;2023-02-18T09:38:06;9.30;99.90
24664;DHT22;12791;50.992;13.788;2023-02-18T09:40:35;9.40;99.90
24664;DHT22;12791;50.992;13.788;2023-02-18T09:43:02;9.50;99.90
24664;DHT22;12791;50.992;13.788;2023-02-18T09:45:29;9.60;99.90
24664;DHT22;12791;50.992;13.788;2023-02-18T09:47:56;9.80;99.90
24664;DHT22;12791;50.992;13.788;2023-02-18T09:50:26;10.10;99.90
24664;DHT22;12791;50.992;13.788;2023-02-18T09:52:54;10.10;99.90
24664;DHT22;12791;50.992;13.788;2023-02-18T09:55:23;10.20;99.90
24664;DHT22;12791;50.992;13.788;2023-02-18T09:57:54;10.40;99.90
24664;DHT22;12791;50.992;13.788;2023-02-18T10:00:26;10.40;99.90
24664;DHT22;12791;50.992;13.788;2023-02-18T10:02:57;10.30;99.90
24664;DHT22;12791;50.992;13.788;2023-02-18T10:05:26;10.60;99.90
24664;DHT22;12791;50.992;13.788;2023-02-18T10:07:57;10.70;99.90
24664;DHT22;12791;50.992;13.788;2023-02-18T10:10:33;10.70;99.90
24664;DHT22;12791;50.992;13.788;2023-02-18T10:13:03;11.10;99.90
24664;DHT22;12791;50.992;13.788;2023-02-18T10:15:31;10.80;99.90
24664;DHT22;12791;50.992;13.788;2023-02-18T10:17:59;10.80;99.90
24664;DHT22;12791;50.992;13.788;2023-02-18T10:20:28;10.80;99.90
24664;DHT22;12791;50.992;13.788;2023-02-18T10:22:57;10.80;99.90
24664;DHT22;12791;50.992;13.788;2023-02-18T10:25:27;10.90;99.90
24664;DHT22;12791;50.992;13.788;2023-02-18T10:27:54;10.80;99.90
24664;DHT22;12791;50.992;13.788;2023-02-18T10:30:28;10.90;99.90
24664;DHT22;12791;50.992;13.788;2023-02-18T10:33:00;10.90;99.90
24664;DHT22;12791;50.992;13.788;2023-02-18T10:35:37;10.90;99.90
24664;DHT22;12791;50.992;13.788;2023-02-18T10:38:11;10.90;99.90
24664;DHT22;12791;50.992;13.788;2023-02-18T10:40:48;10.90;99.90
24664;DHT22;12791;50.992;13.788;2023-02-18T10:43:22;11.20;99.90
24664;DHT22;12791;50.992;13.788;2023-02-18T10:45:56;11.00;99.90
24664;DHT22;12791;50.992;13.788;2023-02-18T10:48:42;11.00;99.90
24664;DHT22;12791;50.992;13.788;2023-02-18T10:51:16;11.00;99.90
24664;DHT22;12791;50.992;13.788;2023-02-18T10:53:45;11.10;99.90
24664;DHT22;12791;50.992;13.788;2023-02-18T10:56:32;11.00;99.90
24664;DHT22;12791;50.992;13.788;2023-02-18T10:59:01;11.10;99.90
24664;DHT22;12791;50.992;13.788;2023-02-18T11:01:31;11.20;99.90
24664;DHT22;12791;50.992;13.788;2023-02-18T11:04:07;11.20;99.90
24664;DHT22;12791;50.992;13.788;2023-02-18T11:06:38;11.20;99.90
24664;DHT22;12791;50.992;13.788;2023-02-18T11:09:06;11.30;99.90
24664;DHT22;12791;50.992;13.788;2023-02-18T11:11:37;11.30;99.90
24664;DHT22;12791;50.992;13.788;2023-02-18T11:14:06;11.40;99.90
24664;DHT22;12791;50.992;13.788;2023-02-18T11:16:39;11.40;99.90
24664;DHT22;12791;50.992;13.788;2023-02-18T11:19:30;11.50;99.90
24664;DHT22;12791;50.992;13.788;2023-02-18T11:22:06;11.50;99.90
24664;DHT22;12791;50.992;13.788;2023-02-18T11:24:37;11.60;99.90
24664;DHT22;12791;50.992;13.788;2023-02-18T11:27:08;11.60;99.90
24664;DHT22;12791;50.992;13.788;2023-02-18T11:29:35;11.70;99.90
24664;DHT22;12791;50.992;13.788;2023-02-18T11:32:03;11.70;99.90
24664;DHT22;12791;50.992;13.788;2023-02-18T11:34:32;11.80;99.90
24664;DHT22;12791;50.992;13.788;2023-02-18T11:37:08;11.80;99.90
24664;DHT22;12791;50.992;13.788;2023-02-18T11:39:36;11.80;99.90
24664;DHT22;12791;50.992;13.788;2023-02-18T11:42:06;11.80;99.90
24664;DHT22;12791;50.992;13.788;2023-02-18T11:44:35;11.90;99.90
24664;DHT22;12791;50.992;13.788;2023-02-18T11:47:05;11.90;99.90
24664;DHT22;12791;50.992;13.788;2023-02-18T11:49:34;12.00;99.90
24664;DHT22;12791;50.992;13.788;2023-02-18T11:52:13;12.00;99.90
24664;DHT22;12791;50.992;13.788;2023-02-18T11:54:41;12.00;99.90
24664;DHT22;12791;50.992;13.788;2023-02-18T11:57:11;12.10;99.90
24664;DHT22;12791;50.992;13.788;2023-02-18T11:59:39;12.10;99.90
24664;DHT22;12791;50.992;13.788;2023-02-18T12:02:25;12.10;99.90
24664;DHT22;12791;50.992;13.788;2023-02-18T12:04:57;12.00;99.90
24664;DHT22;12791;50.992;13.788;2023-02-18T12:07:29;12.00;99.90
24664;DHT22;12791;50.992;13.788;2023-02-18T12:10:00;12.00;99.90
24664;DHT22;12791;50.992;13.788;2023-02-18T12:12:31;12.00;99.90
24664;DHT22;12791;50.992;13.788;2023-02-18T12:14:59;12.00;99.90
24664;DHT22;12791;50.992;13.788;2023-02-18T12:17:39;12.00;99.90
24664;DHT22;12791;50.992;13.788;2023-02-18T12:20:22;11.90;99.90
24664;DHT22;12791;50.992;13.788;2023-02-18T12:22:57;11.80;99.90
24664;DHT22;12791;50.992;13.788;2023-02-18T12:25:35;11.90;99.90
24664;DHT22;12791;50.992;13.788;2023-02-18T12:28:22;11.80;99.90
24664;DHT22;12791;50.992;13.788;2023-02-18T12:34:04;11.80;99.90
24664;DHT22;12791;50.992;13.788;2023-02-18T12:36:46;11.80;99.90
24664;DHT22;12791;50.992;13.788;2023-02-18T12:39:25;11.80;99.90
24664;DHT22;12791;50.992;13.788;2023-02-18T12:42:03;11.80;99.90
24664;DHT22;12791;50.992;13.788;2023-02-18T12:44:37;11.80;99.90
24664;DHT22;12791;50.992;13.788;2023-02-18T12:47:29;11.80;99.90
24664;DHT22;12791;50.992;13.788;2023-02-18T12:50:25;11.90;99.90
24664;DHT22;12791;50.992;13.788;2023-02-18T12:53:05;11.80;99.90
24664;DHT22;12791;50.992;13.788;2023-02-18T12:55:45;11.80;99.90
24664;DHT22;12791;50.992;13.788;2023-02-18T12:58:24;11.80;99.90
24664;DHT22;12791;50.992;13.788;2023-02-18T13:01:15;11.70;99.90
24664;DHT22;12791;50.992;13.788;2023-02-18T13:06:56;11.60;99.90
24664;DHT22;12791;50.992;13.788;2023-02-18T13:09:33;11.60;99.90
24664;DHT22;12791;50.992;13.788;2023-02-18T13:12:09;11.50;99.90
24664;DHT22;12791;50.992;13.788;2023-02-18T13:14:45;11.40;99.90
24664;DHT22;12791;50.992;13.788;2023-02-18T13:17:12;11.40;99.90
24664;DHT22;12791;50.992;13.788;2023-02-18T13:19:45;11.40;99.90
24664;DHT22;12791;50.992;13.788;2023-02-18T13:22:17;11.40;99.90
24664;DHT22;12791;50.992;13.788;2023-02-18T13:24:48;11.30;99.90
24664;DHT22;12791;50.992;13.788;2023-02-18T13:27:20;11.40;99.90
24664;DHT22;12791;50.992;13.788;2023-02-18T13:30:00;11.40;99.90
24664;DHT22;12791;50.992;13.788;2023-02-18T13:32:34;11.50;99.90
24664;DHT22;12791;50.992;13.788;2023-02-18T13:35:14;11.50;99.90
24664;DHT22;12791;50.992;13.788;2023-02-18T13:37:54;11.50;99.90
24664;DHT22;12791;50.992;13.788;2023-02-18T13:40:27;11.50;99.90
24664;DHT22;12791;50.992;13.788;2023-02-18T13:43:20;11.50;99.90
24664;DHT22;12791;50.992;13.788;2023-02-18T13:46:18;11.40;99.90
24664;DHT22;12791;50.992;13.788;2023-02-18T13:48:48;11.30;99.90
24664;DHT22;12791;50.992;13.788;2023-02-18T13:51:17;11.30;99.90
24664;DHT22;12791;50.992;13.788;2023-02-18T13:53:58;11.20;99.90
24664;DHT22;12791;50.992;13.788;2023-02-18T13:56:27;11.10;99.90
24664;DHT22;12791;50.992;13.788;2023-02-18T13:58:59;11.10;99.90
24664;DHT22;12791;50.992;13.788;2023-02-18T14:01:39;11.10;99.90
24664;DHT22;12791;50.992;13.788;2023-02-18T14:04:34;11.10;99.90
24664;DHT22;12791;50.992;13.788;2023-02-18T14:07:22;11.00;99.90
24664;DHT22;12791;50.992;13.788;2023-02-18T14:09:51;11.00;99.90
24664;DHT22;12791;50.992;13.788;2023-02-18T14:12:34;11.00;99.90
24664;DHT22;12791;50.992;13.788;2023-02-18T14:18:08;11.00;99.90
24664;DHT22;12791;50.992;13.788;2023-02-18T14:20:46;11.00;99.90
24664;DHT22;12791;50.992;13.788;2023-02-18T14:23:54;11.00;99.90
24664;DHT22;12791;50.992;13.788;2023-02-18T14:26:26;11.00;99.90
24664;DHT22;12791;50.992;13.788;2023-02-18T14:28:55;11.00;99.90
24664;DHT22;12791;50.992;13.788;2023-02-18T14:31:39;11.00;99.90
24664;DHT22;12791;50.992;13.788;2023-02-18T14:37:04;10.90;99.90
24664;DHT22;12791;50.992;13.788;2023-02-18T14:39:44;10.90;99.90
24664;DHT22;12791;50.992;13.788;2023-02-18T14:42:23;10.90;99.90
24664;DHT22;12791;50.992;13.788;2023-02-18T14:45:08;10.90;99.90
24664;DHT22;12791;50.992;13.788;2023-02-18T14:47:48;10.90;99.90
24664;DHT22;12791;50.992;13.788;2023-02-18T14:50:20;10.80;99.90
24664;DHT22;12791;50.992;13.788;2023-02-18T14:52:49;10.80;99.90
24664;DHT22;12791;50.992;13.788;2023-02-18T14:55:19;10.80;99.90
24664;DHT22;12791;50.992;13.788;2023-02-18T14:57:49;10.80;99.90
24664;DHT22;12791;50.992;13.788;2023-02-18T15:00:18;10.80;99.90
24664;DHT22;12791;50.992;13.788;2023-02-18T15:02:50;10.80;99.90
24664;DHT22;12791;50.992;13.788;2023-02-18T15:05:19;10.80;99.90
24664;DHT22;12791;50.992;13.788;2023-02-18T15:07:57;10.80;99.90
24664;DHT22;12791;50.992;13.788;2023-02-18T15:10:30;10.70;99.90
24664;DHT22;12791;50.992;13.788;2023-02-18T15:13:01;10.70;99.90
24664;DHT22;12791;50.992;13.788;2023-02-18T15:15:28;10.70;99.90
24664;DHT22;12791;50.992;13.788;2023-02-18T15:17:56;10.60;99.90
24664;DHT22;12791;50.992;13.788;2023-02-18T15:20:22;10.60;99.90
24664;DHT22;12791;50.992;13.788;2023-02-18T15:22:49;10.50;99.90
24664;DHT22;12791;50.992;13.788;2023-02-18T15:25:16;10.50;99.90
24664;DHT22;12791;50.992;13.788;2023-02-18T15:27:43;10.50;99.90
24664;DHT22;12791;50.992;13.788;2023-02-18T15:30:19;10.60;99.90
24664;DHT22;12791;50.992;13.788;2023-02-18T15:32:50;10.60;99.90
24664;DHT22;12791;50.992;13.788;2023-02-18T15:35:20;10.40;99.90
24664;DHT22;12791;50.992;13.788;2023-02-18T15:37:52;10.40;99.90
24664;DHT22;12791;50.992;13.788;2023-02-18T15:40:21;10.40;99.90
24664;DHT22;12791;50.992;13.788;2023-02-18T15:42:51;10.50;99.90
24664;DHT22;12791;50.992;13.788;2023-02-18T15:45:20;10.40;99.90
24664;DHT22;12791;50.992;13.788;2023-02-18T15:47:50;10.40;99.90
24664;DHT22;12791;50.992;13.788;2023-02-18T15:50:20;10.40;99.90
24664;DHT22;12791;50.992;13.788;2023-02-18T15:52:48;10.40;99.90
24664;DHT22;12791;50.992;13.788;2023-02-18T15:55:23;10.70;99.90
24664;DHT22;12791;50.992;13.788;2023-02-18T15:57:50;10.50;99.90